25 minutes ago
Runway Headwind Crosswind Length
2/20 11 kt 9,678 ft
METAR EHDL 202225Z AUTO 02012KT 320V130 9999 OVC100 18/16 Q1007 BLU

METAR definition | Embed

METAR Deelen AB

Deelen AB is a midsized airport in Arnhem, The Netherlands. The field elevation is 158 ft.

This report was made for Deelen AB on June 21, 2021 12:25 am, local time.

Airport observations

The wind is from direction northnortheast (020°) with a speed of 12 kt. The wind direction varies between northwest (320°) and southeast (130°).

Visibility is 6¼ mi or more.

There are overcast clouds at an altitude of 10,000 ft. The ceiling, broken or more, is 10,000 ft.

The temperature and wind chill are 64 °F. The dew point is 61 °F, the relative humidity is 88%. The air pressure at sea level is 29.74 inHg (QNH).

Daylight period

Today the sun rises at 5:15 am and sets at 10:00 pm. This applies to Deelen AB, the universal daylight period may be different. The difference between the local time and UTC is +2 hour. Daylight saving time is currently in progress.

Historical data

Donate

Will you help us to keep Metar-Taf.com running?
Your contribution helps further development of the site and to pay for the expenses.

No more ads

Are you donating $ 5 or more? Then we'll never show you ads again, as a token of our eternal gratitude!
Log in before you donate

Do you want the flying weather of Deelen AB on your website? Read more   Free!